LPHR Airport Information

Runway Information
Runway 10 Length 5233 ft width 148 ft
Elevation 81 ft Threshold 0 ft Heading 90
Runway 28 Length 5233 ft Width 148 ft
Elevation 117 ft Threshold 0 ft Heading 270
Airport Frequencies
Type APP Name APP Frequency 119.7 MHZ
Type TWR Name TWR Frequency 118 MHZ
Airport Navaids
Type NDB Name Horta Frequency 380 KHZ
Type NDB Name Horta Frequency 360 KHZ
Type VORTAC Name Horta Frequency 112700 KHZ
Airport Weather Information & NOTAM
ADDS - METARS form results

(0648 UTC 22 April 2018)
 
METAR text: LPHR 220630Z VRB02KT 9999 SCT004 SCT008 BKN011 17/16 Q1027
Conditions at: LPHR (HORTA/FAIAL ISLA, PT) observed 0630 UTC 22 April 2018
Temperature: 17.0°C (63°F)
Dewpoint: 16.0°C (61°F) [RH = 94%]
Pressure (altimeter): 30.32 inches Hg (1027.0 mb)
Winds: variable direction winds at 2 MPH (2 knots; 1.0 m/s)
Visibility: 6 or more miles (10+ km)
Ceiling: 1100 feet AGL
Clouds: scattered clouds at 400 feet AGL
scattered clouds at 800 feet AGL
broken clouds at 1100 feet AGL
Weather: no significant weather observed at this time

METAR text: LPHR 220600Z VRB02KT 9999 SCT004 SCT008 BKN011 16/15 Q1027
Conditions at: LPHR (HORTA/FAIAL ISLA, PT) observed 0600 UTC 22 April 2018
Temperature: 16.0°C (61°F)
Dewpoint: 15.0°C (59°F) [RH = 94%]
Pressure (altimeter): 30.32 inches Hg (1027.0 mb)
Winds: variable direction winds at 2 MPH (2 knots; 1.0 m/s)
Visibility: 6 or more miles (10+ km)
Ceiling: 1100 feet AGL
Clouds: scattered clouds at 400 feet AGL
scattered clouds at 800 feet AGL
broken clouds at 1100 feet AGL
Weather: no significant weather observed at this time